Map

Track Data

SID SEASON NUMBER BASIN SUBBASIN NAME ISO_TIME NATURE LAT LON WMO_WIND WMO_PRES WMO_AGENCY TRACK_TYPE DIST2LAND LANDFALL IFLAG USA_AGENCY USA_ATCF_ID USA_LAT USA_LON USA_RECORD USA_STATUS USA_WIND USA_PRES USA_SSHS USA_R34_NE USA_R34_SE USA_R34_SW USA_R34_NW USA_R50_NE USA_R50_SE USA_R50_SW USA_R50_NW USA_R64_NE USA_R64_SE USA_R64_SW USA_R64_NW USA_POCI USA_ROCI USA_RMW USA_EYE TOKYO_LAT TOKYO_LON TOKYO_GRADE TOKYO_WIND TOKYO_PRES TOKYO_R50_DIR TOKYO_R50_LONG TOKYO_R50_SHORT TOKYO_R30_DIR TOKYO_R30_LONG TOKYO_R30_SHORT TOKYO_LAND CMA_LAT CMA_LON CMA_CAT CMA_WIND CMA_PRES HKO_LAT HKO_LON HKO_CAT HKO_WIND HKO_PRES NEWDELHI_LAT NEWDELHI_LON NEWDELHI_GRADE NEWDELHI_WIND NEWDELHI_PRES NEWDELHI_CI NEWDELHI_DP NEWDELHI_POCI REUNION_LAT REUNION_LON REUNION_TYPE REUNION_WIND REUNION_PRES REUNION_TNUM REUNION_CI REUNION_RMW REUNION_R34_NE REUNION_R34_SE REUNION_R34_SW REUNION_R34_NW REUNION_R50_NE REUNION_R50_SE REUNION_R50_SW REUNION_R50_NW REUNION_R64_NE REUNION_R64_SE REUNION_R64_SW REUNION_R64_NW BOM_LAT BOM_LON BOM_TYPE BOM_WIND BOM_PRES BOM_TNUM BOM_CI BOM_RMW BOM_R34_NE BOM_R34_SE BOM_R34_SW BOM_R34_NW BOM_R50_NE BOM_R50_SE BOM_R50_SW BOM_R50_NW BOM_R64_NE BOM_R64_SE BOM_R64_SW BOM_R64_NW BOM_ROCI BOM_POCI BOM_EYE BOM_POS_METHOD BOM_PRES_METHOD NADI_LAT NADI_LON NADI_CAT NADI_WIND NADI_PRES WELLINGTON_LAT WELLINGTON_LON WELLINGTON_WIND WELLINGTON_PRES DS824_LAT DS824_LON DS824_STAGE DS824_WIND DS824_PRES TD9636_LAT TD9636_LON TD9636_STAGE TD9636_WIND TD9636_PRES TD9635_LAT TD9635_LON TD9635_WIND TD9635_PRES TD9635_ROCI NEUMANN_LAT NEUMANN_LON NEUMANN_CLASS NEUMANN_WIND NEUMANN_PRES MLC_LAT MLC_LON MLC_CLASS MLC_WIND MLC_PRES USA_GUST BOM_GUST BOM_GUST_PER REUNION_GUST REUNION_GUST_PER USA_SEAHGT USA_SEARAD_NE USA_SEARAD_SE USA_SEARAD_SW USA_SEARAD_NW STORM_SPEED STORM_DIR
1962206N14140 1962 55 WP MM NORA 1962-07-25 06:00:00 TS 14.0000 140.000 main 1578 1525 __O___________ -1 14.0000 140.000 0 1000 10 268
1962206N14140 1962 55 WP MM NORA 1962-07-25 09:00:00 TS 13.9826 139.507 main 1525 1472 __P___________ -1 13.9826 139.507 0 1000 10 270
1962206N14140 1962 55 WP MM NORA 1962-07-25 12:00:00 TS 14.0000 139.000 main 1472 1422 __O___________ -1 14.0000 139.000 0 1000 10 275
1962206N14140 1962 55 WP MM NORA 1962-07-25 15:00:00 TS 14.0775 138.478 main 1422 1372 __P___________ -1 14.0775 138.478 0 1000 10 282
1962206N14140 1962 55 WP MM NORA 1962-07-25 18:00:00 TS 14.2000 138.000 main 1372 1331 __O___________ -1 14.2000 138.000 0 1000 9 288
1962206N14140 1962 55 WP MM NORA 1962-07-25 21:00:00 TS 14.3423 137.627 main 1331 1302 __P___________ -1 14.3423 137.627 0 1000 7 294
1962206N14140 1962 55 WP MM NORA 1962-07-26 00:00:00 TS 14.5000 137.300 main 1302 1273 __O___________ -1 14.5000 137.300 0 1000 7 294
1962206N14140 1962 55 WP MM NORA 1962-07-26 03:00:00 TS 14.6425 136.935 main 1262 1169 __P___________ -1 14.6425 136.935 0 1000 14 279
1962206N14140 1962 55 WP MM NORA 1962-07-26 06:00:00 TS 14.7143 135.914 main 1159 1104 O_O______O_O__ jtwc_wp WP081962 14.6000 135.000 20 -1 14.8000 136.600 0 1000 14.6000 135.000 TC 20 14.6000 135.000 20 998 240 16 283
1962206N14140 1962 55 WP MM NORA 1962-07-26 09:00:00 TS 15.0105 135.297 main 1104 1063 P_P______P_P__ WP081962 15.0176 134.600 20 -1 14.9999 136.342 0 1000 15.0176 134.600 TC 20 15.0176 134.600 20 998 240 13 299
1962206N14140 1962 55 WP MM NORA 1962-07-26 12:00:00 TS 15.3429 134.743 main 1052 1023 O_O______OOO__ jtwc_wp WP081962 15.4000 134.200 20 -1 15.2000 136.100 0 1000 15.4000 134.200 TC 20 15.4000 134.200 1 20 15.4000 134.200 20 999 240 12 302
1962206N14140 1962 55 WP MM NORA 1962-07-26 15:00:00 TS 15.6377 134.266 main 1023 1001 P_P______PPP__ WP081962 15.7225 133.812 20 -1 15.3425 135.800 0 1000 15.7225 133.812 TC 20 15.7191 133.917 1 21 15.7225 133.812 21 999 240 10 306
1962206N14140 1962 55 WP MM NORA 1962-07-26 18:00:00 TS 15.8980 133.944 main 996 986 O_O______OPO__ jtwc_wp WP081962 16.0000 133.500 20 -1 15.5000 135.500 0 1000 16.0000 133.500 TC 20 16.0204 133.646 1 22 16.0000 133.500 22 1000 240 7 316
1962206N14140 1962 55 WP MM NORA 1962-07-26 21:00:00 TS 16.1692 133.722 main 991 986 P_P______PPP__ WP081962 16.2724 133.320 22 -1 15.7424 135.250 0 1000 16.2724 133.320 TC 22 16.2865 133.402 1 23 16.2724 133.320 23 1000 210 6 324
1962206N14140 1962 55 WP MM NORA 1962-07-27 00:00:00 TS 16.4000 133.560 main 991 977 O_O______OOO__ jtwc_wp WP081962 16.5000 133.200 25 -1 16.0000 135.000 0 1000 16.5000 133.200 TC 25 16.5000 133.200 1 25 16.5000 133.200 25 1000 180 5 321
1962206N14140 1962 55 WP MM NORA 1962-07-27 03:00:00 TS 16.5810 133.369 main 983 970 P_P______PPP__ WP081962 16.6800 133.035 27 -1 16.2150 134.693 0 1000 16.6800 133.035 TC 27 16.6501 133.048 1 25 16.6800 133.035 26 999 180 5 312
1962206N14140 1962 55 WP MM NORA 1962-07-27 06:00:00 TS 16.7105 133.208 main 970 966 O_O______OPO__ jtwc_wp WP081962 16.8000 132.900 30 -1 16.4000 134.400 0 1000 16.8000 132.900 TC 30 16.7523 132.940 1 26 16.8000 132.900 28 999 180 3 310
1962206N14140 1962 55 WP MM NORA 1962-07-27 09:00:00 TS 16.7871 133.110 main 966 957 P_P______PPP__ WP081962 16.8500 132.835 30 -1 16.5574 134.185 0 1000 16.8500 132.835 TC 30 16.8283 132.861 1 27 16.8500 132.835 28 999 210 2 313
1962206N14140 1962 55 WP MM NORA 1962-07-27 12:00:00 TS 16.8600 133.040 main 963 963 O_O______OOO__ jtwc_wp WP081962 16.9000 132.800 30 -1 16.7000 134.000 0 1000 16.9000 132.800 TC 30 16.9000 132.800 1 28 16.9000 132.800 28 999 240 3 325
1962206N14140 1962 55 WP MM NORA 1962-07-27 15:00:00 TS 16.9985 132.958 main 969 960 P_P______PPP__ WP081962 17.0500 132.750 30 -1 16.8425 133.807 0 999 17.0500 132.750 TC 30 17.0000 132.732 1 28 17.0500 132.750 28 998 240 3 331
1962206N14140 1962 55 WP MM NORA 1962-07-27 18:00:00 TS 17.1400 132.876 main 966 964 O_O______OPO__ jtwc_wp WP081962 17.2000 132.700 30 -1 17.0000 133.600 0 999 17.2000 132.700 TC 30 17.1000 132.677 1 29 17.2000 132.700 28 998 240 3 324
1962206N14140 1962 55 WP MM NORA 1962-07-27 21:00:00 TS 17.2345 132.784 main 964 961 P_P______PPP__ WP081962 17.2575 132.650 30 -1 17.2001 133.335 0 998 17.2575 132.650 TC 30 17.2000 132.635 1 29 17.2575 132.650 29 998 240 3 312
1962206N14140 1962 55 WP MM NORA 1962-07-28 00:00:00 TS 17.3095 132.676 main 961 953 O_OO_____OOO__ jtwc_wp WP081962 17.3000 132.600 30 -1 17.4000 133.100 0 998 17.1000 132.200 TD 25 998 17.3000 132.600 TC 30 17.3000 132.600 1 30 17.3000 132.600 30 998 240 2 312
1962206N14140 1962 55 WP MM NORA 1962-07-28 03:00:00 TS 17.3971 132.593 main 959 956 P_PP_____PPP__ WP081962 17.3925 132.543 30 -1 17.5499 132.992 0 997 17.1300 132.138 TD 25 997 17.3925 132.543 TC 30 17.3919 132.572 1 30 17.3925 132.543 30 997 270 2 322
1962206N14140 1962 55 WP MM NORA 1962-07-28 06:00:00 TS 17.4930 132.526 main 956 956 O_OO_____OPO__ jtwc_wp WP081962 17.5000 132.500 30 -1 17.7000 132.900 1 29 997 17.2000 132.100 TD 25 997 17.5000 132.500 TC 30 17.4850 132.550 1 30 17.5000 132.500 30 997 300 2 331
1962206N14140 1962 55 WP MM NORA 1962-07-28 09:00:00 TS 17.6022 132.473 main 960 955 P_PP_____PPP__ WP081962 17.6000 132.500 30 -1 17.8925 132.708 1 29 996 17.3350 132.100 TD 25 996 17.6000 132.500 TC 30 17.5856 132.528 1 30 17.6000 132.500 30 996 330 3 340
1962206N14140 1962 55 WP MM NORA 1962-07-28 12:00:00 TS 17.7333 132.433 main 955 955 O_OO_____OOO__ jtwc_wp WP081962 17.7000 132.500 30 -1 18.1000 132.500 1 29 996 17.5000 132.100 TD 25 995 17.7000 132.500 TC 30 17.7000 132.500 1 30 17.7000 132.500 30 995 360 3 339
1962206N14140 1962 55 WP MM NORA 1962-07-28 15:00:00 TS 17.8546 132.372 main 965 965 P_PP_____PPP__ WP081962 17.7850 132.457 30 -1 18.3075 132.335 1 29 995 17.6500 132.058 TD 25 994 17.7850 132.457 TC 30 17.8153 132.465 1 30 17.7850 132.457 30 994 360 3 0
1962206N14140 1962 55 WP MM NORA 1962-07-28 18:00:00 TS 18.0076 132.412 996 tokyo main 970 970 OOOO_____OPO__ jtwc_wp WP081962 17.9000 132.400 30 -1 18.4000 135.000 2 996 0 0 0 18.5000 132.200 1 29 995 17.8000 132.000 TD 25 994 17.9000 132.400 TC 30 17.9475 132.422 1 30 17.9000 132.400 30 993 360 3 9
1962206N14140 1962 55 WP MM NORA 1962-07-28 21:00:00 TS 18.1675 132.419 main 981 981 PPPP_____PPP__ WP081962 18.0700 132.357 30 -1 18.4053 134.490 2 996 0 0 18.6425 132.085 1 29 995 17.9275 131.950 TD 27 993 18.0700 132.357 TC 30 18.1059 132.368 1 30 18.0700 132.357 30 992 390 4 0
1962206N14140 1962 55 WP MM NORA 1962-07-29 00:00:00 TS 18.3667 132.385 996 tokyo main 991 988 OOOO_____OOO__ jtwc_wp WP081962 18.3000 132.300 30 -1 18.5000 134.000 2 996 0 0 0 18.8000 132.000 1 29 995 18.1000 131.900 TD 30 992 18.3000 132.300 TC 30 18.3000 132.300 1 30 18.3000 132.300 30 992 420 5 348
1962206N14140 1962 55 WP MM NORA 1962-07-29 03:00:00 TS 18.6370 132.314 main 993 993 PPPP_____PPP__ WP081962 18.5925 132.208 32 -1 18.7348 133.543 2 993 0 0 19.0425 131.935 1 33 992 18.3775 131.865 TD 32 993 18.5925 132.208 TC 32 18.5268 132.230 1 32 18.5925 132.208 32 991 420 6 340
1962206N14140 1962 55 WP MM NORA 1962-07-29 06:00:00 TS 18.9271 132.178 990 tokyo main 1002 997 OOOO_____OPO__ jtwc_wp WP081962 18.9000 132.100 35 0 19.0000 133.100 9 990 0 0 0 19.3000 131.900 2 38 990 18.7000 131.800 TS 35 994 18.9000 132.100 TC 35 18.7899 132.145 1 35 18.9000 132.100 35 991 420 6 333
1962206N14140 1962 55 WP MM NORA 1962-07-29 09:00:00 TS 19.1637 132.029 main 1003 1001 PPPP_____PPP__ WP081962 19.1425 132.007 37 -1 19.1352 132.597 9 987 0 0 19.5000 131.885 2 38 990 19.0000 131.665 TS 40 994 19.1425 132.007 TC 37 19.0830 132.037 1 37 19.1425 132.007 37 990 390 6 330
1962206N14140 1962 55 WP MM NORA 1962-07-29 12:00:00 TS 19.4143 131.886 985 tokyo main 1008 1006 OOOO_____OOO__ jtwc_wp WP081962 19.4000 131.900 40 0 19.3000 132.200 9 985 0 0 0 19.7000 131.900 2 38 990 19.3000 131.500 TS 45 994 19.4000 131.900 TC 40 19.4000 131.900 2 40 19.4000 131.900 40 990 360 6 337
1962206N14140 1962 55 WP MM NORA 1962-07-29 15:00:00 TS 19.7258 131.776 main 1008 999 PPPP_____PPP__ WP081962 19.7350 131.772 42 -1 19.6123 132.040 9 982 0 0 19.9200 131.972 2 43 990 19.6150 131.343 TS 55 992 19.7350 131.772 TC 42 19.7282 131.761 2 43 19.7350 131.772 42 989 360 7 342
1962206N14140 1962 55 WP MM NORA 1962-07-29 18:00:00 TS 20.0681 131.656 980 tokyo main 1004 990 OOOO_____OPO__ jtwc_wp WP081962 20.1000 131.600 45 0 20.0000 132.000 9 980 0 0 0 20.2000 132.000 3 48 990 19.9000 131.200 T 65 991 20.1000 131.600 TC 45 20.0770 131.589 2 47 20.1000 131.600 45 989 360 7 341
1962206N14140 1962 55 WP MM NORA 1962-07-29 21:00:00 TS 20.3983 131.532 main 990 977 PPPP_____PPP__ WP081962 20.4424 131.387 50 -1 20.3842 132.069 9 980 0 0 20.5845 131.969 3 53 987 20.0547 131.152 T 65 987 20.4424 131.387 TC 50 20.4374 131.373 2 51 20.4424 131.387 50 986 330 8 333
1962206N14140 1962 55 WP MM NORA 1962-07-30 00:00:00 TS 20.7571 131.286 980 tokyo main 980 942 OOOO_____OOO__ jtwc_wp WP081962 20.8000 131.100 55 0 20.8000 131.900 9 980 0 0 0 21.0000 131.700 3 58 984 20.3000 131.000 T 65 984 20.8000 131.100 TC 55 20.8000 131.100 2 55 20.8000 131.100 55 983 300 11 319
1962206N14140 1962 55 WP MM NORA 1962-07-30 03:00:00 TS 21.1850 130.790 main 942 904 PPPP_____PPP__ WP081962 21.2075 130.723 57 -1 21.2669 131.054 9 980 0 0 21.3661 130.996 3 63 983 20.8853 130.554 T 65 977 21.2075 130.723 TC 57 21.1543 130.758 2 58 21.2075 130.723 57 979 300 13 310
1962206N14140 1962 55 WP MM NORA 1962-07-30 06:00:00 TS 21.6011 130.223 980 tokyo main 899 857 OOOO_____OPO__ jtwc_wp WP081962 21.6000 130.300 60 0 21.7000 130.100 9 980 0 0 0 21.7000 130.200 4 68 982 21.5000 130.000 T 65 970 21.6000 130.300 TC 60 21.5078 130.360 2 62 21.6000 130.300 60 975 300 12 309
1962206N14140 1962 55 WP MM NORA 1962-07-30 09:00:00 TS 21.9261 129.788 main 857 807 PPPP_____PPP__ WP081962 21.9149 129.900 65 -1 22.0291 129.624 9 980 0 0 22.0144 129.712 4 68 980 21.8372 129.549 T 65 967 21.9149 129.900 TC 65 21.8574 129.933 2 66 21.9149 129.900 65 973 330 10 308
1962206N14140 1962 55 WP MM NORA 1962-07-30 12:00:00 TS 22.2143 129.386 980 tokyo main 807 757 OOOO_____OOO__ jtwc_wp WP081962 22.2000 129.500 70 1 22.3000 129.300 9 980 0 0 0 22.3000 129.300 4 68 978 22.1000 129.100 T 65 965 22.2000 129.500 TC 70 22.2000 129.500 3 70 22.2000 129.500 70 972 360 10 306
1962206N14140 1962 55 WP MM NORA 1962-07-30 15:00:00 TS 22.5024 128.945 main 747 698 PPPP_____PPP__ WP081962 22.4924 129.100 70 -1 22.5499 128.900 9 977 0 0 22.5427 128.770 4 68 976 22.4351 128.585 T 65 965 22.4924 129.100 TC 70 22.5121 129.059 3 70 22.4924 129.100 70 970 360 10 306
1962206N14140 1962 55 WP MM NORA 1962-07-30 18:00:00 TS 22.8029 128.518 975 tokyo main 698 649 OOOO_____OPO__ jtwc_wp WP081962 22.8000 128.700 70 1 22.8000 128.500 9 975 0 0 0 22.8000 128.300 4 68 974 22.8000 128.100 T 65 965 22.8000 128.700 TC 70 22.8205 128.625 3 70 22.8000 128.700 70 969 360 10 309
1962206N14140 1962 55 WP MM NORA 1962-07-30 21:00:00 TS 23.1266 128.116 main 649 609 PPPP_____PPP__ WP081962 23.1275 128.277 70 -1 23.0627 128.055 9 975 0 0 23.1123 127.990 4 68 973 23.1849 127.705 T 67 965 23.1275 128.277 TC 70 23.1435 128.228 3 70 23.1275 128.277 70 970 330 10 316
1962206N14140 1962 55 WP MM NORA 1962-07-31 00:00:00 TS 23.5000 127.786 975 tokyo main 609 579 OOOO_____OOO__ jtwc_wp WP081962 23.5000 127.900 70 1 23.4000 127.700 9 975 0 0 0 23.5000 127.800 4 68 972 23.6000 127.400 T 70 965 23.5000 127.900 TC 70 23.5000 127.900 4 70 23.5000 127.900 70 971 300 10 329
1962206N14140 1962 55 WP MM NORA 1962-07-31 03:00:00 TS 23.9426 127.572 main 579 549 PPPP_____PPP__ WP081962 23.9349 127.598 70 -1 23.8772 127.592 9 972 0 0 23.9847 127.737 4 72 971 24.0349 127.170 T 70 965 23.9349 127.598 TC 70 23.8968 127.716 4 70 23.9349 127.598 70 971 300 10 340
1962206N14140 1962 55 WP MM NORA 1962-07-31 06:00:00 TS 24.4187 127.414 970 tokyo main 549 524 OOOO_____OPO__ jtwc_wp WP081962 24.4000 127.400 70 1 24.4000 127.500 9 970 0 0 0 24.5000 127.600 4 77 971 24.5000 127.000 T 70 965 24.4000 127.400 TC 70 24.3311 127.596 4 70 24.4000 127.400 70 971 300 10 341
1962206N14140 1962 55 WP MM NORA 1962-07-31 09:00:00 TS 24.8593 127.236 main 523 513 PPPP_____PPP__ WP081962 24.8199 127.334 70 -1 24.8427 127.180 9 970 0 0 24.9280 127.138 4 77 971 24.9849 126.850 T 70 965 24.8199 127.334 TC 70 24.7999 127.478 4 70 24.8199 127.334 70 971 300 10 340
1962206N14140 1962 55 WP MM NORA 1962-07-31 12:00:00 TS 25.3429 127.043 970 tokyo main 503 498 OOOO_____OOO__ jtwc_wp WP081962 25.3000 127.300 70 1 25.3000 126.800 9 970 0 0 0 25.4000 126.600 4 77 971 25.5000 126.700 T 70 965 25.3000 127.300 TC 70 25.3000 127.300 4 70 25.3000 127.300 70 971 300 11 342
1962206N14140 1962 55 WP MM NORA 1962-07-31 15:00:00 TS 25.9449 126.849 main 491 486 PPPP_____PPP__ WP081962 25.9495 127.239 70 -1 25.8423 126.500 9 969 0 0 26.0573 126.213 4 77 971 26.0721 126.560 T 70 965 25.9495 127.239 TC 70 25.7936 126.956 4 71 25.9495 127.239 70 971 300 13 340
1962206N14140 1962 55 WP MM NORA 1962-07-31 18:00:00 TS 26.5455 126.564 968 tokyo main 489 461 OOOO_____OPO__ jtwc_wp WP081962 26.6000 127.000 70 1 26.4000 126.200 9 968 0 0 0 26.7000 125.900 4 77 971 26.6000 126.300 T 70 965 26.6000 127.000 TC 70 26.3187 126.546 4 72 26.6000 127.000 70 972 300 13 327
1962206N14140 1962 55 WP MM NORA 1962-07-31 21:00:00 TS 26.9949 126.082 main 465 405 PPPP_____PPP__ WP081962 27.0507 126.402 72 -1 26.9075 125.857 9 968 0 0 27.0999 125.627 4 77 971 26.9206 125.772 T 70 965 27.0507 126.402 TC 72 26.8842 126.112 4 73 27.0507 126.402 72 972 330 13 315
1962206N14140 1962 55 WP MM NORA 1962-08-01 00:00:00 TS 27.4571 125.557 968 tokyo main 399 330 OOOO_____OOO__ jtwc_wp WP081962 27.5000 125.700 75 1 27.4000 125.500 9 968 0 0 0 27.5000 125.400 4 77 971 27.3000 125.200 T 70 965 27.5000 125.700 TC 75 27.5000 125.700 4 75 27.5000 125.700 75 972 360 14 321
1962206N14140 1962 55 WP MM NORA 1962-08-01 03:00:00 TS 28.0635 125.117 main 326 277 PPPP_____PPP__ WP081962 28.0975 125.118 75 -1 27.9000 125.142 9 968 0 0 28.0825 125.185 4 77 971 27.9749 124.790 T 70 965 28.0975 125.118 TC 75 28.1947 125.351 4 74 28.0975 125.118 75 973 360 15 332
1962206N14140 1962 55 WP MM NORA 1962-08-01 06:00:00 TS 28.7621 124.776 968 tokyo main 275 252 OOOO_____OPO__ jtwc_wp WP081962 28.8000 124.700 75 1 28.4000 124.800 9 968 0 0 0 28.8000 125.000 4 77 971 28.8000 124.500 T 70 965 28.8000 124.700 TC 75 28.9347 125.033 4 73 28.8000 124.700 75 974 360 15 342
1962206N14140 1962 55 WP MM NORA 1962-08-01 09:00:00 TS 29.5108 124.578 main 253 248 PPPP_____PPP__ WP081962 29.5922 124.539 72 -1 28.8400 124.477 9 968 0 0 29.6347 124.886 4 72 972 29.6423 124.319 T 67 967 29.5922 124.539 TC 72 29.6824 124.748 4 72 29.5922 124.539 73 974 360 16 349
1962206N14140 1962 55 WP MM NORA 1962-08-01 12:00:00 TS 30.2857 124.443 968 tokyo main 246 228 OOOO_____OOO__ jtwc_wp WP081962 30.4000 124.500 70 1 29.4000 124.200 9 968 0 0 0 30.5000 124.700 4 68 973 30.5000 124.200 T 65 970 30.4000 124.500 TC 70 30.4000 124.500 4 72 30.4000 124.500 72 974 360 16 350
1962206N14140 1962 55 WP MM NORA 1962-08-01 15:00:00 TS 31.0538 124.253 main 229 207 PPPP_____PPP__ WP081962 31.1449 124.422 70 -1 30.2400 123.963 9 969 0 0 31.3105 124.252 4 68 973 31.3600 124.035 T 65 970 31.1449 124.422 TC 70 31.0316 124.256 4 69 31.1449 124.422 70 973 330 15 348
1962206N14140 1962 55 WP MM NORA 1962-08-01 18:00:00 TS 31.7614 124.065 970 tokyo main 207 196 OOOO_____OPO__ jtwc_wp WP081962 31.8000 124.300 70 1 31.2000 123.800 9 970 0 0 0 32.0000 123.800 4 68 974 32.1000 123.900 T 65 970 31.8000 124.300 TC 70 31.6297 124.052 4 67 31.8000 124.300 68 973 300 13 347
1962206N14140 1962 55 WP MM NORA 1962-08-01 21:00:00 TS 32.3472 123.891 main 199 199 PPPP_____PPP__ WP081962 32.3301 124.065 65 -1 32.1374 123.720 9 970 0 0 32.4797 123.567 4 68 974 32.6099 123.857 T 65 970 32.3301 124.065 TC 65 32.2129 123.897 4 64 32.3301 124.065 65 973 300 11 346
1962206N14140 1962 55 WP MM NORA 1962-08-02 00:00:00 TS 32.8714 123.743 970 tokyo main 212 212 OOOO_____OOO__ jtwc_wp WP081962 32.8000 123.800 60 0 33.0000 123.700 9 970 0 0 0 32.9000 123.500 4 68 975 33.0000 123.800 T 65 970 32.8000 123.800 TC 60 32.8000 123.800 2 62 32.8000 123.800 62 974 300 11 344
1962206N14140 1962 55 WP MM NORA 1962-08-02 03:00:00 TS 33.3690 123.547 main 225 225 PPPP_____PPP__ WP081962 33.2625 123.526 60 -1 33.6796 123.619 9 972 0 0 33.3969 123.482 4 68 975 33.3627 123.586 T 60 972 33.2625 123.526 TC 60 33.3560 123.563 2 59 33.2625 123.526 60 975 300 11 349
1962206N14140 1962 55 WP MM NORA 1962-08-02 06:00:00 TS 33.9183 123.487 975 tokyo main 256 243 OOOO_____OPO__ jtwc_wp WP081962 33.8000 123.400 60 0 34.3000 123.700 9 975 0 0 0 34.0000 123.700 4 68 976 33.8000 123.400 STS 55 975 33.8000 123.400 TC 60 33.9282 123.410 2 57 33.8000 123.400 58 977 300 12 4
1962206N14140 1962 55 WP MM NORA 1962-08-02 09:00:00 TS 34.6001 123.661 main 234 191 PPPP_____PPP__ WP081962 34.4891 123.494 55 -1 34.9849 124.088 9 975 0 0 34.7709 124.281 4 63 978 34.4165 123.296 STS 50 975 34.4891 123.494 TC 55 34.5614 123.477 2 54 34.4891 123.494 55 978 300 16 19
1962206N14140 1962 55 WP MM NORA 1962-08-02 12:00:00 TS 35.3857 124.114 975 tokyo main 193 136 OOOO_____OOO__ jtwc_wp WP081962 35.3000 123.900 50 0 35.7000 124.700 9 975 0 0 0 35.6000 125.000 3 58 980 35.2000 123.500 TS 45 975 35.3000 123.900 TC 50 35.3000 123.900 2 52 35.3000 123.900 52 980 300 18 28
1962206N14140 1962 55 WP MM NORA 1962-08-02 15:00:00 TS 36.2195 124.735 main 136 55 PPPP_____PPP__ WP081962 36.1512 124.509 45 -1 36.4179 125.319 9 980 0 0 36.3242 125.437 3 53 982 36.1089 124.076 TS 37 980 36.1512 124.509 TC 45 36.2321 124.784 2 47 36.1512 124.509 47 981 300 22 37
1962206N14140 1962 55 WP MM NORA 1962-08-02 18:00:00 TS 37.1357 125.766 985 tokyo main 48 0 OOOO_____OPO__ jtwc_wp WP081962 37.1000 125.600 40 0 37.2000 126.200 9 985 0 0 0 37.1000 126.100 3 48 985 37.1000 125.200 TD 30 985 37.1000 125.600 TC 40 37.2502 126.063 2 43 37.1000 125.600 42 983 300 28 47
1962206N14140 1962 55 WP MM NORA 1962-08-02 21:00:00 TS 38.1435 127.341 main 0 0 PPPP_____PPP__ WP081962 38.1757 127.337 37 -1 38.0841 127.444 9 986 0 0 38.0427 127.361 3 48 986 38.0828 126.932 TD 30 986 38.1757 127.337 TC 37 38.2674 127.637 2 39 38.1757 127.337 38 984 270 34 54
1962206N14140 1962 55 WP MM NORA 1962-08-03 00:00:00 TS 39.1143 129.229 988 tokyo main 82 82 OOOO_____OOO__ jtwc_wp WP081962 39.2000 129.400 35 0 39.0000 129.000 9 988 0 0 0 39.0000 129.000 3 48 988 39.0000 129.000 TD 30 988 39.2000 129.400 TC 35 39.2000 129.400 2 35 39.2000 129.400 35 986 240 34 58
1962206N14140 1962 55 WP MM NORA 1962-08-03 03:00:00 TS 39.9502 131.041 main 141 141 PPPP_____PPP__ WP081962 40.0288 131.297 35 -1 39.8844 130.683 9 988 0 0 39.8341 130.693 3 48 988 39.8058 130.924 TD 30 988 40.0288 131.297 TC 35 40.0404 131.098 2 35 40.0288 131.297 35 987 240 32 61
1962206N14140 1962 55 WP MM NORA 1962-08-03 06:00:00 TS 40.6669 132.951 988 tokyo main 222 186 OOOO_____OPO__ jtwc_wp WP081962 40.7000 133.200 35 0 40.7000 132.600 9 988 0 0 0 40.6000 132.600 3 48 988 40.5000 132.900 TD 30 988 40.7000 133.200 TC 35 40.7680 132.956 2 35 40.7000 133.200 35 989 240 33 65
1962206N14140 1962 55 WP MM NORA 1962-08-03 09:00:00 TS 41.3327 134.964 main 198 193 PPPP_____PPP__ WP081962 41.3015 135.135 35 -1 41.4617 134.744 9 988 0 0 41.3987 134.654 3 48 988 41.1529 134.991 TD 30 988 41.3015 135.135 TC 35 41.3365 134.963 2 35 41.3763 135.128 35 990 210 33 70
1962206N14140 1962 55 WP MM NORA 1962-08-03 12:00:00 MX 41.7778 137.070 988 tokyo main 229 72 OOOO_____OOO__ jtwc_wp WP081962 41.7000 137.100 35 0 42.0000 137.000 9 988 0 0 0 42.0000 137.000 9 48 988 41.6000 137.100 TD 30 988 41.7000 137.100 TC 35 41.7000 137.100 2 35 41.7000 137.100 35 992 180 32 80
1962206N14140 1962 55 WP MM NORA 1962-08-03 15:00:00 MX 41.8647 139.191 main 66 0 PPPP_____PPP__ WP081962 41.8614 139.004 35 -1 42.2012 139.059 9 989 0 0 42.2087 139.751 9 43 989 41.7456 139.132 TD 30 991 41.8614 139.004 TC 35 41.8284 139.339 2 35 41.2867 139.022 35 993 180 33 90
1962206N14140 1962 55 WP MM NORA 1962-08-03 18:00:00 MX 41.7982 141.482 990 tokyo main 24 11 OOOO_____OPO__ jtwc_wp WP081962 41.8000 141.100 XX 35 -5 42.2000 141.300 6 990 0 0 0 42.2000 142.500 9 38 990 41.7000 141.100 TD 30 995 41.8000 141.100 TC 35 41.7542 141.642 2 35 40.8000 141.100 35 995 180 36 92
1962206N14140 1962 55 WP MM NORA 1962-08-03 21:00:00 MX 41.7699 144.043 main 61 61 PPP______PPP__ WP081962 41.5642 143.589 35 -1 42.1188 144.103 6 990 0 0 42.2135 144.713 9 990 TD 41.5642 143.589 TC 35 41.5272 143.973 2 35 40.8393 143.562 35 996 150 39 90
1962206N14140 1962 55 WP MM NORA 1962-08-04 00:00:00 MX 41.8000 146.767 990 tokyo main 188 188 OOO______OOO__ jtwc_wp WP081962 41.2000 146.300 35 -1 42.0000 147.000 6 990 0 0 0 42.2000 147.000 9 990 41.2000 146.300 TC 35 41.2000 146.300 2 35 41.2000 146.300 35 998 120 41 89
1962206N14140 1962 55 WP MM NORA 1962-08-04 03:00:00 ET 41.8706 149.527 main 352 352 _PP___________ WP081962 -1 41.8028 149.282 6 988 0 0 41.9384 149.771 9 988 TC 2 43 87
1962206N14140 1962 55 WP MM NORA 1962-08-04 06:00:00 ET 42.0000 152.500 986 tokyo main 458 458 _OO___________ -1 42.0000 152.000 6 986 0 0 0 42.0000 153.000 9 986 2 54 79
1962206N14140 1962 55 WP MM NORA 1962-08-04 09:00:00 ET 42.8693 156.683 main 611 611 _PP___________ -1 42.8873 156.393 6 985 0 0 42.8512 156.972 9 985 2 65 72
1962206N14140 1962 55 WP MM NORA 1962-08-04 12:00:00 ET 44.0000 161.000 984 tokyo main 788 788 _OO___________ -1 44.0000 161.000 6 984 0 0 0 44.0000 161.000 9 984 59 71
1962206N14140 1962 55 WP MM NORA 1962-08-04 15:00:00 ET 44.8175 164.460 main 878 875 _PP___________ -1 44.8134 164.498 6 980 0 0 44.8216 164.421 9 980 47 65
1962206N14140 1962 55 WP MM NORA 1962-08-04 18:00:00 ET 46.0000 167.000 976 tokyo main 907 813 _OO___________ -1 46.0000 167.000 6 976 0 0 0 46.0000 167.000 9 976 45 41
1962206N14140 1962 55 WP MM NORA 1962-08-04 21:00:00 ET 48.1978 168.673 main 811 709 _PP___________ -1 48.1978 168.673 6 974 0 0 48.1978 168.673 9 974 46 22
1962206N14140 1962 55 WP MM NORA 1962-08-05 00:00:00 ET 50.3000 169.600 972 tokyo main 701 664 _OO___________ -1 50.3000 169.600 6 972 0 0 0 50.3000 169.600 9 972 31 18
1962206N14140 1962 55 WP MM NORA 1962-08-05 03:00:00 ET 51.1776 170.194 main 664 654 _PP___________ -1 51.1210 170.163 6 970 0 0 51.2342 170.226 9 970 13 25
1962206N14140 1962 55 WP MM NORA 1962-08-05 06:00:00 ET 51.5000 170.500 968 tokyo main 660 660 _OO___________ -1 51.5000 170.500 6 968 0 0 0 51.5000 170.500 9 968 7 45
1962206N14140 1962 55 WP MM NORA 1962-08-05 09:00:00 ET 51.6433 170.936 main 676 676 _PP___________ -1 52.0756 171.187 6 968 0 0 51.2110 170.684 9 968 9 44
1962206N14140 1962 55 WP MM NORA 1962-08-05 12:00:00 ET 52.1571 171.514 968 tokyo main 677 640 _OO___________ -1 52.8000 171.900 6 968 0 0 0 51.3000 171.000 9 968 20 24
1962206N14140 1962 55 WP MM NORA 1962-08-05 15:00:00 ET 53.4546 172.277 main 640 576 _PP___________ -1 53.8175 172.516 6 969 0 0 52.7288 171.798 9 969 30 17
1962206N14140 1962 55 WP MM NORA 1962-08-05 18:00:00 ET 55.0000 173.000 970 tokyo main 565 441 _OO___________ -1 55.0000 173.000 6 970 0 0 0 55.0000 173.000 9 970 29 9
1962206N14140 1962 55 WP MM NORA 1962-08-05 21:00:00 ET 56.3154 173.083 main 430 329 _P____________ -1 56.3154 173.083 6 972 0 0 9 24 7
1962206N14140 1962 55 WP MM NORA 1962-08-06 00:00:00 ET 57.4000 173.500 974 tokyo main 332 326 _O____________ -1 57.4000 173.500 6 974 0 0 0 19 38
1962206N14140 1962 55 WP MM NORA 1962-08-06 03:00:00 ET 57.8156 175.245 main 363 363 _P____________ -1 57.8156 175.245 6 979 0 0 20 72
1962206N14140 1962 55 WP MM NORA 1962-08-06 06:00:00 ET 58.0000 177.000 984 tokyo main 414 393 _O____________ -1 58.0000 177.000 6 984 0 0 0 11 63
1962206N14140 1962 55 WP MM NORA 1962-08-06 09:00:00 ET 58.3196 177.143 main 393 357 _P____________ -1 58.3196 177.143 6 984 0 0 10 17
1962206N14140 1962 55 WP MM NORA 1962-08-06 12:00:00 ET 59.0000 177.600 984 tokyo main 350 234 _O____________ -1 59.0000 177.600 6 984 0 0 0 24 37
1962206N14140 1962 55 WP MM NORA 1962-08-06 15:00:00 ET 60.2670 179.983 main 225 193 _P____________ -1 60.2670 179.983 6 986 0 0 42 48
1962206N14140 1962 55 EP CP NORA 1962-08-06 18:00:00 ET 61.8000 183.900 main 242 _O____________ -1 61.8000 183.900 6 988 0 0 0 48 50

Digital Typhoon Data and Search

About IBTrACS Database

This database is a web-friendly format of International Best Track Archive for Climate Stewardship (IBTrACS), a global best track data archive curated by NOAA dating back to 1842.

Updated: 2021-12-03